createdAt,value
2022-12-01T00:00:59.678Z,12.53
2022-12-01T00:03:27.254Z,12.10
2022-12-01T00:06:02.519Z,11.63
2022-12-01T00:08:30.049Z,11.30
2022-12-01T00:10:57.590Z,12.10
2022-12-01T00:13:25.282Z,11.90
2022-12-01T00:15:52.827Z,11.70
2022-12-01T00:18:20.361Z,11.80
2022-12-01T00:20:48.970Z,11.10
2022-12-01T00:23:16.496Z,11.67
2022-12-01T00:25:44.787Z,12.03
2022-12-01T00:28:12.382Z,15.23
2022-12-01T00:30:39.898Z,12.97
2022-12-01T00:33:08.210Z,12.77
2022-12-01T00:35:35.763Z,12.43
2022-12-01T00:38:03.288Z,12.07
2022-12-01T00:40:31.591Z,11.57
2022-12-01T00:42:59.165Z,11.87
2022-12-01T00:45:26.690Z,11.20
2022-12-01T00:47:55.003Z,11.90
2022-12-01T00:50:22.579Z,12.03
2022-12-01T00:52:50.111Z,11.57
2022-12-01T00:55:17.675Z,15.65
2022-12-01T00:57:45.259Z,12.60
2022-12-01T01:00:13.033Z,11.60
2022-12-01T01:02:40.662Z,15.30
2022-12-01T01:05:08.188Z,12.03
2022-12-01T01:07:35.810Z,13.13
2022-12-01T01:10:03.248Z,11.50
2022-12-01T01:12:30.822Z,11.97
2022-12-01T01:14:58.347Z,15.23
2022-12-01T01:17:25.882Z,15.32
2022-12-01T01:19:53.448Z,12.30
2022-12-01T01:22:20.982Z,12.37
2022-12-01T01:24:49.274Z,12.43
2022-12-01T01:27:17.625Z,11.97
2022-12-01T01:29:45.257Z,11.03
2022-12-01T01:32:12.675Z,11.20
2022-12-01T01:34:40.545Z,11.07
2022-12-01T01:37:08.092Z,11.13
2022-12-01T01:39:36.393Z,11.43
2022-12-01T01:42:05.169Z,12.47
2022-12-01T01:44:44.745Z,11.43
2022-12-01T01:47:12.574Z,11.37
2022-12-01T01:49:40.110Z,11.17
2022-12-01T01:52:08.402Z,10.87
2022-12-01T01:54:35.966Z,11.57
2022-12-01T01:57:03.501Z,10.80
2022-12-01T01:59:31.801Z,11.87
2022-12-01T02:02:02.854Z,11.83
2022-12-01T02:04:31.118Z,11.67
2022-12-01T02:06:58.641Z,10.87
2022-12-01T02:09:26.246Z,11.17
2022-12-01T02:11:53.789Z,10.77
2022-12-01T02:14:36.625Z,10.67
2022-12-01T02:17:15.928Z,10.87
2022-12-01T02:20:02.732Z,11.70
2022-12-01T02:22:48.246Z,10.80
2022-12-01T02:25:24.620Z,10.57
2022-12-01T02:28:10.272Z,11.17
2022-12-01T02:31:07.482Z,10.90
2022-12-01T02:33:40.658Z,10.40
2022-12-01T02:36:28.723Z,10.60
2022-12-01T02:38:58.809Z,10.87
2022-12-01T02:41:29.454Z,11.27
2022-12-01T02:43:59.746Z,10.37
2022-12-01T02:46:30.206Z,10.00
2022-12-01T02:48:57.621Z,9.87
2022-12-01T02:51:25.945Z,10.27
2022-12-01T02:53:53.486Z,11.07
2022-12-01T02:56:21.022Z,9.13
2022-12-01T02:58:49.355Z,9.90
2022-12-01T03:01:34.969Z,10.23
2022-12-01T03:04:08.746Z,12.90
2022-12-01T03:07:00.632Z,10.80
2022-12-01T03:09:49.830Z,10.40
2022-12-01T03:12:47.430Z,10.13
2022-12-01T03:15:21.562Z,9.77
2022-12-01T03:17:52.090Z,9.83
2022-12-01T03:20:28.506Z,9.77
2022-12-01T03:22:56.060Z,9.47
2022-12-01T03:25:23.605Z,10.40
2022-12-01T03:28:19.851Z,10.13
2022-12-01T03:30:18.703Z,8.97
2022-12-01T03:32:48.966Z,10.40
2022-12-01T03:35:24.683Z,9.40
2022-12-01T03:37:55.291Z,12.30
2022-12-01T03:40:22.844Z,11.20
2022-12-01T03:42:54.199Z,10.33
2022-12-01T03:45:27.316Z,9.73
2022-12-01T03:47:54.843Z,9.47
2022-12-01T03:50:23.177Z,9.13
2022-12-01T03:52:56.422Z,9.87
2022-12-01T03:55:30.043Z,9.10
2022-12-01T03:58:09.576Z,9.80
2022-12-01T04:00:37.163Z,9.13
2022-12-01T04:03:04.716Z,9.27
2022-12-01T04:05:32.219Z,8.90
2022-12-01T04:08:00.626Z,9.30
2022-12-01T04:10:28.079Z,10.30
2022-12-01T04:12:55.601Z,9.87
2022-12-01T04:15:24.317Z,9.53
2022-12-01T04:17:51.842Z,9.67
2022-12-01T04:20:19.368Z,9.07
2022-12-01T04:22:47.821Z,8.93
2022-12-01T04:25:15.346Z,8.63
2022-12-01T04:27:42.869Z,9.47
2022-12-01T04:30:10.472Z,9.80
2022-12-01T04:32:38.764Z,9.40
2022-12-01T04:35:06.378Z,9.33
2022-12-01T04:37:34.919Z,9.07
2022-12-01T04:40:02.451Z,12.20
2022-12-01T04:42:30.745Z,9.57
2022-12-01T04:44:58.329Z,11.93
2022-12-01T04:47:25.862Z,9.50
2022-12-01T04:49:53.388Z,9.90
2022-12-01T04:52:22.085Z,9.83
2022-12-01T04:54:50.407Z,10.33
2022-12-01T04:57:17.921Z,9.80
2022-12-01T04:59:46.321Z,9.83
2022-12-01T05:02:13.866Z,9.37
2022-12-01T05:04:41.334Z,10.77
2022-12-01T05:07:09.656Z,9.23
2022-12-01T05:09:37.191Z,8.83
2022-12-01T05:12:04.716Z,9.97
2022-12-01T05:14:32.802Z,9.53
2022-12-01T05:17:00.347Z,9.80
2022-12-01T05:19:48.144Z,10.47
2022-12-01T05:22:15.521Z,9.53
2022-12-01T05:24:43.047Z,9.17
2022-12-01T05:27:10.621Z,9.57
2022-12-01T05:29:38.146Z,9.20
2022-12-01T05:32:05.740Z,8.87
2022-12-01T05:34:33.323Z,8.93
2022-12-01T05:37:01.617Z,8.50
2022-12-01T05:39:29.141Z,9.10
2022-12-01T05:41:56.716Z,8.97
2022-12-01T05:44:25.018Z,12.05
2022-12-01T05:46:52.544Z,9.60
2022-12-01T05:49:20.382Z,9.70
2022-12-01T05:51:47.899Z,9.20
2022-12-01T05:54:15.443Z,9.27
2022-12-01T05:56:43.775Z,8.77
2022-12-01T05:59:11.299Z,8.70
2022-12-01T06:01:38.906Z,8.27
2022-12-01T06:04:07.228Z,8.87
2022-12-01T06:06:34.720Z,8.57
2022-12-01T06:09:02.253Z,9.17
2022-12-01T06:11:30.735Z,8.33
2022-12-01T06:13:58.273Z,8.60
2022-12-01T06:16:26.621Z,9.20
2022-12-01T06:18:54.138Z,8.63
2022-12-01T06:21:21.675Z,9.37
2022-12-01T06:23:49.976Z,8.60
2022-12-01T06:26:17.551Z,8.53
2022-12-01T06:28:45.074Z,7.97
2022-12-01T06:31:12.600Z,8.13
2022-12-01T06:33:40.175Z,9.37
2022-12-01T06:36:08.596Z,8.10
2022-12-01T06:38:36.118Z,7.57
2022-12-01T06:41:04.452Z,7.37
2022-12-01T06:43:31.985Z,7.00
2022-12-01T06:46:02.013Z,8.77
2022-12-01T06:48:28.227Z,7.70
2022-12-01T06:50:55.757Z,7.57
2022-12-01T06:53:23.288Z,7.07
2022-12-01T06:55:50.861Z,7.20
2022-12-01T06:58:18.386Z,9.30
2022-12-01T07:00:51.793Z,7.30
2022-12-01T07:03:13.465Z,7.07
2022-12-01T07:05:40.992Z,7.23
2022-12-01T07:08:08.576Z,6.30
2022-12-01T07:10:36.099Z,6.93
2022-12-01T07:13:03.623Z,7.95
2022-12-01T07:15:31.148Z,8.57
2022-12-01T07:17:59.482Z,7.07
2022-12-01T07:20:27.005Z,6.97
2022-12-01T07:22:54.540Z,6.87
2022-12-01T07:25:22.872Z,7.60
2022-12-01T07:27:50.407Z,6.37
2022-12-01T07:30:18.003Z,6.70
2022-12-01T07:32:45.575Z,6.60
2022-12-01T07:35:13.110Z,6.07
2022-12-01T07:37:40.645Z,6.83
2022-12-01T07:40:08.343Z,6.20
2022-12-01T07:42:35.864Z,5.80
2022-12-01T07:45:03.387Z,5.60
2022-12-01T07:47:31.719Z,5.83
2022-12-01T07:49:59.244Z,5.93
2022-12-01T07:52:26.788Z,5.70
2022-12-01T07:54:55.120Z,5.67
2022-12-01T07:57:22.646Z,6.10
2022-12-01T07:59:50.403Z,5.70
2022-12-01T08:02:19.264Z,5.63
2022-12-01T08:04:46.756Z,4.87
2022-12-01T08:07:14.281Z,5.23
2022-12-01T08:09:42.632Z,5.10
2022-12-01T08:12:10.230Z,5.47
2022-12-01T08:14:38.509Z,5.30
2022-12-01T08:17:06.802Z,5.50
2022-12-01T08:19:34.762Z,5.33
2022-12-01T08:22:02.334Z,5.30
2022-12-01T08:24:30.598Z,5.83
2022-12-01T08:26:58.813Z,5.10
2022-12-01T08:29:26.307Z,4.83
2022-12-01T08:31:54.598Z,4.70
2022-12-01T08:34:22.924Z,4.63
2022-12-01T08:36:50.447Z,5.00
2022-12-01T08:39:17.983Z,4.67
2022-12-01T08:41:46.315Z,5.10
2022-12-01T08:44:13.956Z,5.40
2022-12-01T08:46:41.470Z,4.93
2022-12-01T08:49:09.253Z,4.73
2022-12-01T08:51:36.779Z,6.28
2022-12-01T08:54:04.314Z,4.90
2022-12-01T08:56:31.870Z,5.97
2022-12-01T08:58:59.392Z,4.93
2022-12-01T09:01:27.064Z,4.83
2022-12-01T09:03:54.826Z,6.07
2022-12-01T09:06:22.363Z,5.03
2022-12-01T09:08:49.877Z,4.90
2022-12-01T09:11:17.461Z,5.07
2022-12-01T09:13:46.773Z,4.50
2022-12-01T09:16:12.584Z,6.32
2022-12-01T09:18:40.074Z,5.10
2022-12-01T09:21:10.257Z,4.93
2022-12-01T09:23:37.792Z,4.50
2022-12-01T09:26:07.816Z,4.20
2022-12-01T09:28:33.246Z,4.70
2022-12-01T09:31:09.479Z,4.63
2022-12-01T09:33:38.180Z,5.72
2022-12-01T09:36:05.745Z,4.20
2022-12-01T09:38:33.270Z,4.30
2022-12-01T09:41:00.844Z,5.05
2022-12-01T09:43:28.375Z,4.90
2022-12-01T09:45:55.904Z,3.93
2022-12-01T09:48:26.806Z,4.27
2022-12-01T09:50:54.312Z,4.27
2022-12-01T09:53:21.836Z,4.17
2022-12-01T09:55:49.705Z,4.40
2022-12-01T09:58:19.919Z,4.20
2022-12-01T10:00:47.476Z,3.63
2022-12-01T10:03:39.081Z,4.00
2022-12-01T10:06:29.297Z,4.70
2022-12-01T10:09:10.621Z,4.30
2022-12-01T10:11:38.158Z,5.30
2022-12-01T10:14:06.448Z,4.67
2022-12-01T10:16:34.059Z,4.30
2022-12-01T10:19:16.237Z,4.30
2022-12-01T10:21:52.477Z,4.23
2022-12-01T10:24:25.387Z,4.00
2022-12-01T10:26:56.811Z,4.13
2022-12-01T10:29:39.372Z,4.60
2022-12-01T10:32:19.869Z,4.57
2022-12-01T10:34:48.171Z,4.97
2022-12-01T10:37:15.740Z,4.33
2022-12-01T10:39:44.036Z,4.83
2022-12-01T10:42:14.246Z,4.50
2022-12-01T10:44:41.761Z,5.20
2022-12-01T10:47:16.052Z,6.03
2022-12-01T10:49:43.585Z,4.77
2022-12-01T10:52:11.120Z,5.68
2022-12-01T10:54:38.706Z,4.60
2022-12-01T10:57:06.243Z,5.57
2022-12-01T10:59:36.532Z,4.87
2022-12-01T11:02:05.438Z,4.47
2022-12-01T11:05:00.087Z,5.53
2022-12-01T11:07:33.710Z,4.73
2022-12-01T11:10:04.123Z,6.10
2022-12-01T11:12:31.649Z,6.00
2022-12-01T11:14:59.214Z,6.90
2022-12-01T11:17:29.222Z,5.40
2022-12-01T11:19:56.762Z,5.20
2022-12-01T11:22:28.010Z,5.80
2022-12-01T11:25:01.476Z,5.60
2022-12-01T11:27:29.775Z,5.90
2022-12-01T11:30:06.870Z,6.20
2022-12-01T11:32:37.556Z,6.00
2022-12-01T11:35:14.150Z,6.20
2022-12-01T11:38:13.171Z,6.43
2022-12-01T11:40:21.705Z,6.17
2022-12-01T11:42:49.250Z,6.23
2022-12-01T11:45:22.562Z,6.53
2022-12-01T11:48:07.919Z,6.27
2022-12-01T11:50:35.463Z,6.80
2022-12-01T11:53:03.000Z,6.43
2022-12-01T11:55:31.421Z,6.37
2022-12-01T11:57:58.944Z,7.10
2022-12-01T12:00:27.276Z,7.07
2022-12-01T12:03:00.592Z,6.60
2022-12-01T12:05:42.884Z,7.10
2022-12-01T12:08:28.620Z,7.33
2022-12-01T12:11:17.328Z,6.40
2022-12-01T12:14:00.007Z,7.13
2022-12-01T12:16:32.081Z,6.63
2022-12-01T12:19:15.489Z,6.60
2022-12-01T12:22:07.589Z,7.30
2022-12-01T12:24:42.153Z,6.83
2022-12-01T12:27:40.368Z,7.57
2022-12-01T12:30:13.646Z,6.93
2022-12-01T12:32:46.938Z,9.05
2022-12-01T12:35:32.278Z,7.30
2022-12-01T12:38:18.123Z,6.73
2022-12-01T12:41:01.138Z,7.27
2022-12-01T12:43:28.661Z,6.40
2022-12-01T12:46:08.239Z,6.83
2022-12-01T12:49:03.536Z,7.43
2022-12-01T12:51:39.738Z,6.80
2022-12-01T12:54:26.502Z,7.77
2022-12-01T12:56:54.178Z,7.27
2022-12-01T12:59:30.010Z,8.17
2022-12-01T13:02:03.493Z,7.27
2022-12-01T13:04:42.294Z,7.97
2022-12-01T13:07:13.193Z,8.30
2022-12-01T13:09:43.751Z,8.10
2022-12-01T13:12:13.786Z,7.90
2022-12-01T13:14:43.865Z,8.57
2022-12-01T13:17:23.172Z,7.70
2022-12-01T13:19:51.138Z,8.13
2022-12-01T13:22:18.290Z,8.63
2022-12-01T13:24:45.828Z,10.50
2022-12-01T13:27:15.837Z,8.77
2022-12-01T13:29:49.499Z,8.23
2022-12-01T13:32:37.610Z,8.90
2022-12-01T13:35:05.128Z,8.27
2022-12-01T13:37:35.321Z,8.33
2022-12-01T13:40:21.593Z,7.40
2022-12-01T13:42:58.364Z,8.37
2022-12-01T13:45:25.988Z,7.87
2022-12-01T13:47:53.562Z,7.60
2022-12-01T13:50:45.229Z,8.77
2022-12-01T13:53:15.295Z,8.43
2022-12-01T13:56:01.241Z,8.63
2022-12-01T13:58:34.828Z,9.10
2022-12-01T14:01:20.736Z,11.00
2022-12-01T14:04:02.727Z,9.50
2022-12-01T14:06:50.843Z,9.33
2022-12-01T14:09:33.335Z,9.07
2022-12-01T14:12:04.384Z,8.70
2022-12-01T14:14:37.904Z,8.83
2022-12-01T14:17:05.439Z,8.73
2022-12-01T14:19:42.005Z,8.87
2022-12-01T14:22:09.526Z,9.23
2022-12-01T14:24:37.821Z,8.40
2022-12-01T14:27:05.383Z,8.50
2022-12-01T14:29:41.116Z,9.27
2022-12-01T14:32:09.423Z,9.37
2022-12-01T14:34:37.067Z,8.47
2022-12-01T14:37:07.387Z,9.30
2022-12-01T14:39:41.371Z,10.17
2022-12-01T14:42:11.627Z,9.80
2022-12-01T14:44:45.105Z,9.97
2022-12-01T14:47:21.315Z,9.93
2022-12-01T14:50:00.301Z,13.13
2022-12-01T14:52:31.262Z,9.60
2022-12-01T14:55:07.953Z,11.20
2022-12-01T14:57:35.429Z,9.87
2022-12-01T15:00:12.939Z,10.97
2022-12-01T15:02:43.446Z,9.30
2022-12-01T15:05:13.979Z,11.15
2022-12-01T15:07:42.006Z,9.17
2022-12-01T15:10:21.693Z,9.30
2022-12-01T15:12:49.258Z,8.70
2022-12-01T15:15:23.631Z,8.20
2022-12-01T15:17:47.371Z,9.38
2022-12-01T15:20:36.784Z,9.20
2022-12-01T15:23:13.278Z,7.77
2022-12-01T15:25:40.802Z,7.40
2022-12-01T15:28:14.147Z,7.60
2022-12-01T15:30:41.671Z,6.90
2022-12-01T15:33:11.622Z,9.40
2022-12-01T15:35:40.160Z,7.70
2022-12-01T15:38:07.692Z,7.10
2022-12-01T15:43:03.817Z,7.80
2022-12-01T15:45:31.408Z,7.40
2022-12-01T15:47:58.884Z,7.50
2022-12-01T15:50:32.198Z,6.70
2022-12-01T15:53:02.706Z,6.90
2022-12-01T15:55:32.900Z,8.77
2022-12-01T15:58:00.494Z,7.70
2022-12-01T16:00:28.025Z,7.90
2022-12-01T16:02:56.367Z,6.53
2022-12-01T16:05:24.161Z,7.53
2022-12-01T16:08:13.100Z,7.00
2022-12-01T16:10:34.869Z,8.10
2022-12-01T16:13:39.334Z,9.80
2022-12-01T16:16:28.144Z,7.87
2022-12-01T16:19:04.266Z,9.35
2022-12-01T16:21:32.609Z,10.35
2022-12-01T16:24:00.133Z,8.60
2022-12-01T16:26:27.659Z,8.30
2022-12-01T16:28:55.238Z,8.13
2022-12-01T16:31:23.579Z,8.27
2022-12-01T16:33:51.052Z,8.47
2022-12-01T16:36:22.677Z,8.77
2022-12-01T16:38:46.910Z,8.03
2022-12-01T16:41:17.138Z,8.60
2022-12-01T16:43:59.409Z,9.10
2022-12-01T16:46:12.232Z,7.63
2022-12-01T16:48:39.695Z,9.98
2022-12-01T16:51:08.304Z,8.70
2022-12-01T16:53:35.848Z,7.97
2022-12-01T16:56:03.377Z,8.07
2022-12-01T16:58:30.954Z,7.90
2022-12-01T17:00:58.486Z,8.80
2022-12-01T17:03:27.189Z,8.90
2022-12-01T17:05:54.321Z,8.47
2022-12-01T17:08:21.855Z,7.90
2022-12-01T17:10:49.428Z,9.17
2022-12-01T17:13:17.041Z,9.00
2022-12-01T17:15:44.604Z,9.03
2022-12-01T17:18:12.062Z,8.73
2022-12-01T17:20:39.627Z,8.50
2022-12-01T17:23:07.161Z,9.27
2022-12-01T17:25:35.455Z,11.97
2022-12-01T17:28:03.019Z,11.53
2022-12-01T17:30:30.546Z,9.70
2022-12-01T17:32:58.069Z,10.10
2022-12-01T17:35:25.661Z,9.20
2022-12-01T17:37:53.186Z,8.63
2022-12-01T17:40:20.711Z,8.77
2022-12-01T17:42:50.693Z,9.37
2022-12-01T17:45:15.800Z,8.13
2022-12-01T17:47:44.083Z,8.17
2022-12-01T17:50:12.998Z,8.27
2022-12-01T17:52:40.556Z,8.50
2022-12-01T17:55:08.056Z,9.07
2022-12-01T17:57:35.620Z,8.60
2022-12-01T18:00:03.187Z,9.63
2022-12-01T18:02:30.765Z,12.57
2022-12-01T18:04:58.637Z,11.50
2022-12-01T18:07:26.160Z,8.83
2022-12-01T18:09:54.438Z,8.50
2022-12-01T18:12:21.975Z,8.77
2022-12-01T18:14:49.707Z,8.93
2022-12-01T18:17:17.797Z,9.63
2022-12-01T18:19:45.434Z,8.87
2022-12-01T18:22:12.938Z,9.00
2022-12-01T18:24:40.462Z,9.30
2022-12-01T18:27:08.029Z,8.47
2022-12-01T18:29:35.580Z,8.93
2022-12-01T18:32:03.116Z,8.43
2022-12-01T18:34:31.457Z,8.50
2022-12-01T18:36:58.992Z,8.83
2022-12-01T18:39:26.527Z,10.38
2022-12-01T18:41:54.102Z,10.88
2022-12-01T18:44:21.637Z,9.37
2022-12-01T18:46:49.995Z,8.73
2022-12-01T18:49:17.513Z,10.07
2022-12-01T18:51:45.040Z,10.10
2022-12-01T18:54:12.565Z,9.57
2022-12-01T18:56:40.680Z,9.40
2022-12-01T18:59:08.213Z,11.73
2022-12-01T19:01:36.233Z,10.90
2022-12-01T19:04:03.330Z,10.30
2022-12-01T19:06:31.624Z,10.27
2022-12-01T19:08:59.170Z,9.90
2022-12-01T19:11:28.092Z,11.03
2022-12-01T19:13:58.540Z,12.40
2022-12-01T19:16:26.116Z,10.10
2022-12-01T19:18:53.639Z,10.83
2022-12-01T19:21:21.167Z,10.33
2022-12-01T19:23:49.470Z,10.43
2022-12-01T19:26:17.062Z,9.83
2022-12-01T19:28:44.586Z,10.17
2022-12-01T19:31:12.179Z,13.45
2022-12-01T19:33:40.826Z,11.17
2022-12-01T19:36:08.421Z,11.40
2022-12-01T19:38:35.946Z,11.67
2022-12-01T19:41:03.522Z,10.93
2022-12-01T19:43:31.045Z,10.80
2022-12-01T19:45:59.404Z,12.10
2022-12-01T19:48:27.010Z,10.50
2022-12-01T19:50:54.535Z,13.60
2022-12-01T19:53:22.839Z,12.20
2022-12-01T19:55:50.413Z,11.13
2022-12-01T19:58:17.936Z,11.47
2022-12-01T20:00:45.499Z,10.93
2022-12-01T20:03:13.044Z,11.50
2022-12-01T20:05:41.330Z,14.57
2022-12-01T20:08:09.682Z,12.63
2022-12-01T20:10:37.485Z,11.63
2022-12-01T20:13:05.082Z,12.37
2022-12-01T20:15:32.531Z,12.63
2022-12-01T20:18:00.125Z,12.90
2022-12-01T20:20:27.659Z,12.60
2022-12-01T20:22:55.194Z,11.63
2022-12-01T20:25:22.750Z,11.60
2022-12-01T20:27:50.274Z,11.90
2022-12-01T20:30:17.809Z,12.73
2022-12-01T20:32:45.737Z,12.33
2022-12-01T20:35:13.262Z,16.10
2022-12-01T20:37:41.555Z,13.53
2022-12-01T20:40:09.279Z,13.13
2022-12-01T20:42:36.803Z,12.97
2022-12-01T20:45:04.396Z,17.12
2022-12-01T20:47:32.305Z,13.40
2022-12-01T20:49:59.830Z,13.73
2022-12-01T20:52:27.357Z,13.27
2022-12-01T20:54:54.948Z,12.73
2022-12-01T20:57:22.473Z,14.00
2022-12-01T20:59:49.998Z,13.60
2022-12-01T21:02:17.679Z,13.43
2022-12-01T21:04:45.117Z,13.43
2022-12-01T21:07:12.643Z,13.57
2022-12-01T21:09:40.216Z,13.93
2022-12-01T21:12:29.648Z,13.33
2022-12-01T21:15:07.422Z,12.83
2022-12-01T21:17:34.950Z,14.07
2022-12-01T21:20:03.241Z,13.80
2022-12-01T21:22:31.130Z,14.37
2022-12-01T21:25:07.492Z,13.27
2022-12-01T21:27:35.021Z,13.50
2022-12-01T21:30:03.364Z,12.90
2022-12-01T21:32:30.899Z,14.73
2022-12-01T21:34:58.435Z,14.27
2022-12-01T21:37:26.608Z,12.50
2022-12-01T21:39:54.142Z,13.20
2022-12-01T21:42:22.460Z,12.70
2022-12-01T21:44:50.291Z,13.60
2022-12-01T21:47:20.342Z,12.87
2022-12-01T21:49:47.876Z,12.90
2022-12-01T21:52:15.756Z,14.10
2022-12-01T21:54:43.279Z,13.47
2022-12-01T21:57:30.035Z,13.40
2022-12-01T21:59:57.549Z,12.63
2022-12-01T22:02:25.925Z,13.83
2022-12-01T22:04:53.416Z,13.53
2022-12-01T22:07:21.015Z,13.47
2022-12-01T22:09:49.236Z,14.20
2022-12-01T22:12:16.808Z,13.10
2022-12-01T22:14:44.333Z,13.57
2022-12-01T22:17:15.266Z,13.67
2022-12-01T22:19:42.839Z,13.77
2022-12-01T22:22:10.374Z,13.00
2022-12-01T22:24:46.786Z,13.50
2022-12-01T22:27:23.037Z,12.87
2022-12-01T22:29:51.332Z,13.23
2022-12-01T22:32:24.428Z,12.70
2022-12-01T22:34:52.252Z,13.33
2022-12-01T22:37:25.336Z,13.33
2022-12-01T22:39:56.376Z,12.47
2022-12-01T22:42:30.715Z,14.00
2022-12-01T22:45:03.006Z,16.75
2022-12-01T22:47:30.561Z,13.90
2022-12-01T22:49:58.085Z,13.53
2022-12-01T22:52:26.416Z,14.27
2022-12-01T22:54:54.045Z,17.27
2022-12-01T22:57:30.014Z,13.93
2022-12-01T22:59:57.580Z,17.00
2022-12-01T23:02:25.250Z,15.27
2022-12-01T23:04:56.123Z,15.00
2022-12-01T23:07:35.645Z,13.33
2022-12-01T23:10:03.075Z,14.63
2022-12-01T23:12:30.614Z,12.97
2022-12-01T23:14:58.224Z,13.37
2022-12-01T23:17:28.201Z,13.60
2022-12-01T23:20:01.358Z,13.87
2022-12-01T23:22:31.511Z,12.90
2022-12-01T23:24:59.036Z,13.27
2022-12-01T23:27:27.359Z,13.83
2022-12-01T23:29:55.218Z,16.58
2022-12-01T23:32:22.734Z,13.33
2022-12-01T23:34:54.509Z,13.33
2022-12-01T23:37:18.652Z,13.07
2022-12-01T23:39:46.175Z,13.13
2022-12-01T23:42:13.709Z,16.83
2022-12-01T23:44:42.212Z,13.47
2022-12-01T23:47:12.187Z,13.63
2022-12-01T23:49:40.479Z,12.30
2022-12-01T23:52:08.053Z,16.42
2022-12-01T23:54:35.579Z,13.30
2022-12-01T23:57:03.124Z,13.03
2022-12-01T23:59:30.697Z,12.97
